Time;durP1;ratioP1;P1;durP2;ratioP2;P2;SDS_P1;SDS_P2;PMS_P1;PMS_P2;Temp;Humidity;BMP_temperature;BMP_pressure;BME280_temperature;BME280_humidity;BME280_pressure;Samples;Min_cycle;Max_cycle;Signal;HPM_P1;HPM_P2
2021/11/26 00:01:36;;;;;;;0.35;0.35;;;;;20.70;99554.00;;;;5089161;28;20134;-81
2021/11/26 00:04:07;;;;;;;0.00;0.00;;;;;20.70;99554.00;;;;5108216;28;20051;-80
2021/11/26 00:06:38;;;;;;;0.00;0.00;;;;;20.60;99561.00;;;;5090603;28;20064;-79
2021/11/26 00:09:07;;;;;;;0.00;0.00;;;;;20.60;99546.00;;;;5090823;28;20050;-79
2021/11/26 00:11:37;;;;;;;0.00;0.00;;;;;20.70;99552.00;;;;5089259;28;20043;-81
2021/11/26 00:14:14;;;;;;;0.00;0.00;;;;;20.60;99556.00;;;;5107520;28;20051;-80
2021/11/26 00:16:44;;;;;;;0.10;0.10;;;;;20.60;99568.00;;;;5107712;28;20036;-80
2021/11/26 00:19:14;;;;;;;0.00;0.00;;;;;20.50;99561.00;;;;5088940;28;20059;-81
2021/11/26 00:21:44;;;;;;;0.10;0.10;;;;;20.50;99581.00;;;;5107403;28;20043;-79
2021/11/26 00:24:13;;;;;;;0.00;0.00;;;;;20.50;99591.00;;;;5107809;28;20052;-80
2021/11/26 00:26:43;;;;;;;0.00;0.00;;;;;20.50;99580.00;;;;5108180;28;20055;-80
2021/11/26 00:29:14;;;;;;;0.00;0.00;;;;;20.30;99582.00;;;;5072545;28;20109;-80
2021/11/26 00:31:43;;;;;;;0.00;0.00;;;;;20.40;99566.00;;;;5099493;28;20113;-80
2021/11/26 00:34:14;;;;;;;0.03;0.03;;;;;20.50;99554.00;;;;5108040;28;20039;-79
2021/11/26 00:36:43;;;;;;;0.30;0.30;;;;;20.40;99552.00;;;;5107789;28;20043;-79
2021/11/26 00:39:12;;;;;;;0.03;0.03;;;;;20.40;99539.00;;;;5107416;28;20080;-79
2021/11/26 00:41:42;;;;;;;0.00;0.00;;;;;20.60;99541.00;;;;5107665;28;20042;-78
2021/11/26 00:44:11;;;;;;;0.00;0.00;;;;;20.50;99550.00;;;;5088817;28;20048;-79
2021/11/26 00:46:40;;;;;;;0.00;0.00;;;;;20.50;99553.00;;;;5088966;28;20458;-79
2021/11/26 00:49:11;;;;;;;0.15;0.00;;;;;20.40;99532.00;;;;5106912;28;20055;-79
2021/11/26 00:51:40;;;;;;;0.10;0.10;;;;;20.40;99525.00;;;;5107299;28;20040;-79
2021/11/26 00:54:10;;;;;;;0.00;0.00;;;;;20.40;99549.00;;;;5105319;28;20048;-79
2021/11/26 00:56:39;;;;;;;0.00;0.00;;;;;20.30;99537.00;;;;5107233;28;20467;-79
2021/11/26 00:59:09;;;;;;;0.13;0.10;;;;;20.30;99550.00;;;;5107662;28;20409;-79
2021/11/26 01:01:38;;;;;;;0.00;0.00;;;;;20.30;99543.00;;;;5106954;28;20113;-80
2021/11/26 01:04:08;;;;;;;0.00;0.00;;;;;20.30;99553.00;;;;5107016;28;20486;-80
2021/11/26 01:06:37;;;;;;;0.00;0.00;;;;;20.30;99537.00;;;;5106935;28;20073;-79
2021/11/26 01:09:06;;;;;;;0.08;0.08;;;;;20.20;99554.00;;;;5106679;28;20447;-79
2021/11/26 01:11:36;;;;;;;0.00;0.00;;;;;20.30;99561.00;;;;5088436;28;20060;-79
2021/11/26 01:14:05;;;;;;;0.00;0.00;;;;;20.20;99566.00;;;;5106843;28;20039;-79
2021/11/26 01:16:35;;;;;;;0.00;0.00;;;;;20.20;99555.00;;;;5105216;28;20043;-79
2021/11/26 01:19:04;;;;;;;0.00;0.00;;;;;20.30;99565.00;;;;5106834;28;20052;-79
2021/11/26 01:21:34;;;;;;;0.00;0.00;;;;;20.30;99565.00;;;;5106309;28;20668;-80
2021/11/26 01:24:03;;;;;;;0.00;0.00;;;;;20.40;99584.00;;;;5103800;28;20125;-81
2021/11/26 01:26:32;;;;;;;0.13;0.13;;;;;20.40;99583.00;;;;5086572;28;20051;-80
2021/11/26 01:29:05;;;;;;;0.00;0.00;;;;;20.40;99560.00;;;;5105654;28;20049;-80
2021/11/26 01:31:37;;;;;;;0.10;0.10;;;;;20.40;99565.00;;;;5105956;28;20108;-79
2021/11/26 01:34:08;;;;;;;0.00;0.00;;;;;20.40;99575.00;;;;5106942;28;20047;-78
2021/11/26 01:36:40;;;;;;;0.00;0.00;;;;;20.40;99590.00;;;;5107926;28;20052;-78
2021/11/26 01:39:09;;;;;;;0.05;0.05;;;;;20.40;99568.00;;;;5110670;28;20626;-78
2021/11/26 01:41:42;;;;;;;0.00;0.00;;;;;20.40;99578.00;;;;5110711;28;20051;-79
2021/11/26 01:44:11;;;;;;;0.08;0.08;;;;;20.40;99572.00;;;;5110893;28;20032;-79
2021/11/26 01:46:44;;;;;;;0.00;0.00;;;;;20.40;99572.00;;;;5109593;28;20044;-79
2021/11/26 01:49:14;;;;;;;0.40;0.40;;;;;20.40;99572.00;;;;5110331;28;20125;-78
2021/11/26 01:51:44;;;;;;;0.00;0.00;;;;;20.50;99552.00;;;;5110346;28;20507;-79
2021/11/26 01:54:13;;;;;;;0.00;0.00;;;;;20.50;99565.00;;;;5110479;28;20036;-79
2021/11/26 01:56:42;;;;;;;0.00;0.00;;;;;20.40;99564.00;;;;5109002;28;20043;-80
2021/11/26 01:59:12;;;;;;;0.00;0.00;;;;;20.50;99567.00;;;;5092024;28;20040;-77
2021/11/26 02:01:41;;;;;;;0.00;0.00;;;;;20.50;99570.00;;;;5109447;28;20062;-77
2021/11/26 02:04:11;;;;;;;0.13;0.13;;;;;20.50;99571.00;;;;5109395;28;20123;-78
2021/11/26 02:06:40;;;;;;;0.00;0.00;;;;;20.50;99561.00;;;;5109288;28;20069;-78
2021/11/26 02:09:10;;;;;;;0.00;0.00;;;;;20.50;99562.00;;;;5109402;28;20055;-79
2021/11/26 02:11:39;;;;;;;0.00;0.00;;;;;20.50;99561.00;;;;5106387;28;20051;-78
2021/11/26 02:14:09;;;;;;;0.08;0.08;;;;;20.50;99530.00;;;;5108398;28;20720;-78
2021/11/26 02:16:47;;;;;;;0.00;0.00;;;;;20.50;99539.00;;;;5089543;28;20429;-77
2021/11/26 02:19:21;;;;;;;0.00;0.00;;;;;20.60;99541.00;;;;5109765;28;20047;-77
2021/11/26 02:21:50;;;;;;;0.00;0.00;;;;;20.50;99536.00;;;;5091095;28;20040;-79
2021/11/26 02:24:21;;;;;;;0.00;0.00;;;;;20.50;99514.00;;;;5110050;28;20075;-80
2021/11/26 02:26:51;;;;;;;0.00;0.00;;;;;20.50;99502.00;;;;5091352;28;20048;-78
2021/11/26 02:29:21;;;;;;;0.00;0.00;;;;;20.50;99492.00;;;;5091560;28;20051;-78
2021/11/26 02:31:50;;;;;;;0.00;0.00;;;;;20.50;99491.00;;;;5109507;28;20043;-78
2021/11/26 02:34:20;;;;;;;0.00;0.00;;;;;20.50;99502.00;;;;5090961;28;20035;-79
2021/11/26 02:36:49;;;;;;;0.00;0.00;;;;;20.50;99494.00;;;;5091042;28;20039;-79
2021/11/26 02:39:19;;;;;;;0.00;0.00;;;;;20.50;99501.00;;;;5091724;28;20566;-77
2021/11/26 02:41:49;;;;;;;0.25;0.25;;;;;20.60;99483.00;;;;5109760;28;20039;-82
2021/11/26 02:44:18;;;;;;;0.00;0.00;;;;;20.60;99486.00;;;;5074466;28;20502;-80
2021/11/26 02:46:48;;;;;;;0.00;0.00;;;;;20.60;99474.00;;;;5091285;28;21027;-81
2021/11/26 02:49:19;;;;;;;0.00;0.00;;;;;20.60;99466.00;;;;5108772;28;20106;-79
2021/11/26 02:51:49;;;;;;;0.00;0.00;;;;;20.60;99476.00;;;;5108711;28;20501;-82
2021/11/26 02:54:19;;;;;;;0.00;0.00;;;;;20.60;99492.00;;;;5074721;28;20044;-80
2021/11/26 02:56:48;;;;;;;0.00;0.00;;;;;20.60;99496.00;;;;5109420;28;20043;-81
2021/11/26 02:59:17;;;;;;;0.00;0.00;;;;;20.60;99490.00;;;;5090391;28;20154;-81
2021/11/26 03:01:46;;;;;;;0.00;0.00;;;;;20.60;99474.00;;;;5090943;28;20047;-81
2021/11/26 03:04:16;;;;;;;0.00;0.00;;;;;20.60;99462.00;;;;5109313;28;20078;-82
2021/11/26 03:06:45;;;;;;;0.00;0.00;;;;;20.60;99460.00;;;;5091029;28;20039;-86
2021/11/26 03:09:15;;;;;;;0.00;0.00;;;;;20.60;99459.00;;;;5091069;28;20112;-79
2021/11/26 03:11:44;;;;;;;0.00;0.00;;;;;20.60;99430.00;;;;5090996;28;20475;-82
2021/11/26 03:14:13;;;;;;;0.00;0.00;;;;;20.50;99436.00;;;;5073276;28;20051;-83
2021/11/26 03:16:43;;;;;;;0.00;0.00;;;;;20.50;99438.00;;;;5090308;28;20052;-88
2021/11/26 03:19:12;;;;;;;0.00;0.00;;;;;20.60;99437.00;;;;5090375;28;20424;-87
2021/11/26 03:21:41;;;;;;;0.00;0.00;;;;;20.60;99427.00;;;;5108172;28;20088;-79
2021/11/26 03:24:11;;;;;;;0.00;0.00;;;;;20.60;99419.00;;;;5090678;28;20043;-85
2021/11/26 03:26:40;;;;;;;0.00;0.00;;;;;20.70;99438.00;;;;5108724;28;20069;-82
2021/11/26 03:29:10;;;;;;;0.00;0.00;;;;;20.60;99418.00;;;;5090405;28;20043;-83
2021/11/26 03:31:40;;;;;;;0.00;0.00;;;;;20.60;99431.00;;;;5090349;28;20048;-82
2021/11/26 03:34:09;;;;;;;0.50;0.13;;;;;20.60;99412.00;;;;5109109;28;20112;-82
2021/11/26 03:36:39;;;;;;;0.00;0.00;;;;;20.60;99405.00;;;;5089725;28;20468;-86
2021/11/26 03:39:08;;;;;;;0.00;0.00;;;;;20.60;99405.00;;;;5089880;28;20152;-82
2021/11/26 03:41:38;;;;;;;0.00;0.00;;;;;20.60;99395.00;;;;5090052;28;20567;-81
2021/11/26 03:44:07;;;;;;;0.88;0.50;;;;;20.60;99413.00;;;;5073468;28;20487;-82
2021/11/26 03:46:37;;;;;;;0.00;0.00;;;;;20.60;99410.00;;;;5074201;28;20055;-80
2021/11/26 03:49:06;;;;;;;0.00;0.00;;;;;20.60;99391.00;;;;5108116;28;20105;-83
2021/11/26 03:51:35;;;;;;;0.00;0.00;;;;;20.60;99385.00;;;;5088796;28;20055;-80
2021/11/26 03:54:05;;;;;;;0.00;0.00;;;;;20.60;99401.00;;;;5108749;28;20136;-83
2021/11/26 03:56:34;;;;;;;0.00;0.00;;;;;20.60;99378.00;;;;5090482;28;20052;-86
2021/11/26 03:59:06;;;;;;;0.00;0.00;;;;;20.60;99367.00;;;;5089760;28;20085;-84
2021/11/26 04:01:36;;;;;;;0.00;0.00;;;;;20.60;99372.00;;;;5108374;28;20122;-80
2021/11/26 04:04:05;;;;;;;0.00;0.00;;;;;20.60;99365.00;;;;5089541;28;20054;-87
2021/11/26 04:06:35;;;;;;;0.05;0.00;;;;;20.60;99362.00;;;;5089785;28;20468;-81
2021/11/26 04:09:05;;;;;;;0.00;0.00;;;;;20.60;99347.00;;;;5107534;28;20204;-86
2021/11/26 04:11:34;;;;;;;0.00;0.00;;;;;20.60;99352.00;;;;5090176;28;20051;-84
2021/11/26 04:14:04;;;;;;;0.00;0.00;;;;;20.60;99336.00;;;;5089771;28;20043;-82
2021/11/26 04:16:36;;;;;;;0.00;0.00;;;;;20.60;99343.00;;;;5088927;28;20047;-82
2021/11/26 04:19:05;;;;;;;0.00;0.00;;;;;20.60;99326.00;;;;5073386;28;20043;-84
2021/11/26 04:21:35;;;;;;;0.00;0.00;;;;;20.70;99348.00;;;;5107795;28;20050;-85
2021/11/26 04:24:04;;;;;;;0.00;0.00;;;;;20.60;99340.00;;;;5108313;28;20061;-82
2021/11/26 04:26:34;;;;;;;0.00;0.00;;;;;20.60;99312.00;;;;5090196;28;20429;-79
2021/11/26 04:29:03;;;;;;;0.05;0.05;;;;;20.60;99315.00;;;;5072623;28;20047;-85
2021/11/26 04:31:33;;;;;;;0.00;0.00;;;;;20.50;99314.00;;;;5089692;28;20055;-85
2021/11/26 04:34:02;;;;;;;0.90;0.35;;;;;20.50;99292.00;;;;5089369;28;20056;-87
2021/11/26 04:36:32;;;;;;;0.00;0.00;;;;;20.50;99308.00;;;;5072594;28;20078;-80
2021/11/26 04:39:01;;;;;;;0.00;0.00;;;;;20.50;99290.00;;;;5107144;28;20051;-86
2021/11/26 04:41:31;;;;;;;0.00;0.00;;;;;20.50;99287.00;;;;5107219;28;20044;-81
2021/11/26 04:44:00;;;;;;;0.00;0.00;;;;;20.50;99297.00;;;;5107171;28;20519;-82
2021/11/26 04:46:29;;;;;;;0.00;0.00;;;;;20.40;99285.00;;;;5107482;28;20044;-84
2021/11/26 04:48:59;;;;;;;0.00;0.00;;;;;20.40;99265.00;;;;5088846;28;20051;-81
2021/11/26 04:51:28;;;;;;;0.30;0.30;;;;;20.30;99264.00;;;;5106646;28;20077;-87
2021/11/26 04:53:58;;;;;;;0.13;0.13;;;;;20.30;99270.00;;;;5106965;28;20054;-85
2021/11/26 04:56:28;;;;;;;0.00;0.00;;;;;20.20;99269.00;;;;5107911;28;20574;-85
2021/11/26 04:58:59;;;;;;;0.15;0.15;;;;;20.20;99268.00;;;;5107135;28;20545;-87
2021/11/26 05:01:28;;;;;;;0.60;0.60;;;;;20.20;99260.00;;;;5089793;28;20064;-86
2021/11/26 05:03:58;;;;;;;2.40;1.55;;;;;20.20;99271.00;;;;5072331;28;20054;-81
2021/11/26 05:06:28;;;;;;;0.00;0.00;;;;;20.10;99259.00;;;;5072183;28;20069;-84
2021/11/26 05:08:57;;;;;;;0.20;0.20;;;;;20.10;99270.00;;;;5106693;28;20093;-85
2021/11/26 05:11:27;;;;;;;0.00;0.00;;;;;20.10;99265.00;;;;5074454;28;20051;-87
2021/11/26 05:13:57;;;;;;;0.00;0.00;;;;;20.10;99248.00;;;;5111290;28;20028;-82
2021/11/26 05:16:27;;;;;;;0.10;0.10;;;;;20.10;99238.00;;;;5111535;28;20035;-81
2021/11/26 05:18:56;;;;;;;0.00;0.00;;;;;20.10;99257.00;;;;5093228;28;20069;-86
2021/11/26 05:21:26;;;;;;;0.00;0.00;;;;;20.00;99258.00;;;;5092237;28;20044;-81
2021/11/26 05:23:56;;;;;;;0.98;0.15;;;;;19.90;99225.00;;;;5110836;28;20461;-83
2021/11/26 05:26:25;;;;;;;0.05;0.05;;;;;19.90;99247.00;;;;5092480;28;20121;-83
2021/11/26 05:28:54;;;;;;;0.00;0.00;;;;;19.90;99241.00;;;;5110883;28;20043;-79
2021/11/26 05:31:24;;;;;;;0.00;0.00;;;;;19.80;99245.00;;;;5110742;28;20108;-80
2021/11/26 05:33:55;;;;;;;0.40;0.30;;;;;19.80;99220.00;;;;5111519;28;20035;-81
2021/11/26 05:36:25;;;;;;;0.05;0.05;;;;;19.80;99241.00;;;;5091775;28;20040;-85
2021/11/26 05:38:54;;;;;;;0.30;0.22;;;;;19.80;99221.00;;;;5110745;28;20124;-84
2021/11/26 05:41:24;;;;;;;0.00;0.00;;;;;19.70;99228.00;;;;5109995;28;20093;-81
2021/11/26 05:43:53;;;;;;;0.00;0.00;;;;;19.70;99221.00;;;;5091749;28;20048;-79
2021/11/26 05:46:23;;;;;;;0.00;0.00;;;;;19.70;99219.00;;;;5110518;28;20051;-82
2021/11/26 05:48:52;;;;;;;0.15;0.15;;;;;19.60;99210.00;;;;5110858;28;20055;-79
2021/11/26 05:51:22;;;;;;;0.20;0.20;;;;;19.70;99201.00;;;;5075509;28;20059;-83
2021/11/26 05:53:51;;;;;;;0.20;0.20;;;;;19.70;99176.00;;;;5110299;28;20081;-79
2021/11/26 05:56:21;;;;;;;0.00;0.00;;;;;19.70;99179.00;;;;5110189;28;20081;-80
2021/11/26 05:58:51;;;;;;;0.00;0.00;;;;;19.60;99171.00;;;;5110163;28;20046;-81
2021/11/26 06:01:21;;;;;;;0.00;0.00;;;;;19.50;99146.00;;;;5110242;28;20430;-81
2021/11/26 06:03:51;;;;;;;0.22;0.22;;;;;19.60;99152.00;;;;5091833;28;20531;-81
2021/11/26 06:06:20;;;;;;;0.00;0.00;;;;;19.60;99163.00;;;;5111124;28;20063;-83
2021/11/26 06:08:49;;;;;;;0.10;0.10;;;;;19.60;99163.00;;;;5091484;28;20039;-80
2021/11/26 06:11:19;;;;;;;0.20;0.20;;;;;19.70;99179.00;;;;5110048;28;20035;-82
2021/11/26 06:13:48;;;;;;;0.00;0.00;;;;;19.70;99186.00;;;;5091486;28;20093;-78
2021/11/26 06:16:18;;;;;;;0.00;0.00;;;;;19.70;99194.00;;;;5110153;28;20498;-84
2021/11/26 06:18:48;;;;;;;0.00;0.00;;;;;19.70;99176.00;;;;5092152;28;20551;-81
2021/11/26 06:21:17;;;;;;;0.00;0.00;;;;;19.70;99190.00;;;;5109386;28;20040;-80
2021/11/26 06:23:47;;;;;;;0.00;0.00;;;;;19.60;99173.00;;;;5074946;28;20467;-84
2021/11/26 06:26:17;;;;;;;0.00;0.00;;;;;19.60;99182.00;;;;5074961;28;20128;-80
2021/11/26 06:28:46;;;;;;;0.00;0.00;;;;;19.50;99194.00;;;;5109578;28;20036;-80
2021/11/26 06:31:15;;;;;;;0.00;0.00;;;;;19.50;99181.00;;;;5109763;28;20073;-81
2021/11/26 06:33:45;;;;;;;0.10;0.10;;;;;19.50;99164.00;;;;5109183;28;20549;-81
2021/11/26 06:36:14;;;;;;;0.00;0.00;;;;;19.50;99155.00;;;;5109434;28;20093;-79
2021/11/26 06:38:43;;;;;;;0.00;0.00;;;;;19.40;99164.00;;;;5109591;28;20089;-84
2021/11/26 06:41:13;;;;;;;0.00;0.00;;;;;19.30;99151.00;;;;5091377;28;20047;-83
2021/11/26 06:43:42;;;;;;;0.13;0.13;;;;;19.30;99158.00;;;;5074845;28;20093;-84
2021/11/26 06:46:12;;;;;;;0.10;0.10;;;;;19.40;99167.00;;;;5109402;28;20409;-86
2021/11/26 06:48:41;;;;;;;0.00;0.00;;;;;19.40;99163.00;;;;5108857;28;20055;-84
2021/11/26 06:51:11;;;;;;;0.00;0.00;;;;;19.40;99157.00;;;;5108786;28;20047;-81
2021/11/26 06:53:40;;;;;;;0.00;0.00;;;;;19.30;99166.00;;;;5110003;28;20044;-83
2021/11/26 06:56:09;;;;;;;0.00;0.00;;;;;19.30;99152.00;;;;5109793;28;20040;-87
2021/11/26 06:58:39;;;;;;;0.00;0.00;;;;;19.40;99169.00;;;;5109262;28;20093;-81
2021/11/26 07:01:10;;;;;;;0.00;0.00;;;;;19.50;99151.00;;;;5090662;28;20048;-81
2021/11/26 07:03:39;;;;;;;;;;;;;19.50;99167.00;;;;5109529;28;20088;-87
2021/11/26 07:06:08;;;;;;;0.00;0.00;;;;;19.50;99151.00;;;;5108780;28;19923;-84
2021/11/26 07:08:38;;;;;;;0.00;0.00;;;;;19.50;99165.00;;;;5074073;28;20079;-81
2021/11/26 07:11:07;;;;;;;0.10;0.10;;;;;19.50;99147.00;;;;5090836;28;20501;-82
2021/11/26 07:13:37;;;;;;;0.00;0.00;;;;;19.60;99147.00;;;;5090252;28;20482;-82
2021/11/26 07:16:06;;;;;;;0.10;0.10;;;;;19.60;99159.00;;;;5108728;28;20040;-82
2021/11/26 07:18:36;;;;;;;0.20;0.17;;;;;19.70;99137.00;;;;5090239;28;20055;-85
2021/11/26 07:21:05;;;;;;;0.28;0.17;;;;;19.70;99145.00;;;;5109326;28;20044;-82
2021/11/26 07:23:35;;;;;;;0.25;0.25;;;;;19.80;99143.00;;;;5091121;28;20051;-86
2021/11/26 07:26:04;;;;;;;0.20;0.20;;;;;19.80;99157.00;;;;5108396;28;20799;-87
2021/11/26 07:28:34;;;;;;;0.17;0.17;;;;;19.90;99157.00;;;;5109000;28;20039;-81
2021/11/26 07:31:03;;;;;;;0.00;0.00;;;;;19.90;99156.00;;;;5091841;28;20513;-81
2021/11/26 07:33:33;;;;;;;0.00;0.00;;;;;19.90;99147.00;;;;5109020;28;20048;-82
2021/11/26 07:36:02;;;;;;;0.00;0.00;;;;;20.00;99148.00;;;;5091878;28;20047;-81
2021/11/26 07:38:32;;;;;;;0.00;0.00;;;;;20.00;99135.00;;;;5075380;28;20096;-83
2021/11/26 07:41:02;;;;;;;0.00;0.00;;;;;20.00;99152.00;;;;5074763;28;20044;-83
2021/11/26 07:43:31;;;;;;;0.00;0.00;;;;;19.90;99145.00;;;;5092240;28;20097;-85
2021/11/26 07:46:02;;;;;;;0.55;0.20;;;;;19.90;99153.00;;;;5109523;28;20047;-85
2021/11/26 07:48:31;;;;;;;0.00;0.00;;;;;19.90;99153.00;;;;5108599;28;20550;-84
2021/11/26 07:51:01;;;;;;;0.10;0.10;;;;;19.80;99144.00;;;;5089775;28;20048;-79
2021/11/26 07:53:32;;;;;;;0.20;0.10;;;;;19.90;99132.00;;;;5108981;28;20718;-84
2021/11/26 07:56:01;;;;;;;0.00;0.00;;;;;19.90;99147.00;;;;5109767;28;20040;-80
2021/11/26 07:58:30;;;;;;;0.13;0.13;;;;;19.90;99141.00;;;;5109643;28;20043;-84
2021/11/26 08:01:00;;;;;;;0.00;0.00;;;;;19.90;99131.00;;;;5091185;28;20043;-82
2021/11/26 08:03:30;;;;;;;3.20;0.57;;;;;19.90;99145.00;;;;5090917;28;20055;-82
2021/11/26 08:06:05;;;;;;;0.00;0.00;;;;;20.00;99150.00;;;;5108447;28;20051;-82
2021/11/26 08:08:34;;;;;;;0.00;0.00;;;;;20.00;99138.00;;;;5073588;28;20143;-83
2021/11/26 08:11:04;;;;;;;0.00;0.00;;;;;19.90;99154.00;;;;5090393;28;20058;-82
2021/11/26 08:13:33;;;;;;;0.00;0.00;;;;;19.90;99152.00;;;;5108116;28;20070;-85
2021/11/26 08:16:03;;;;;;;0.00;0.00;;;;;19.90;99162.00;;;;5073612;28;20051;-84
2021/11/26 08:18:33;;;;;;;0.00;0.00;;;;;20.00;99157.00;;;;5090947;28;20047;-84
2021/11/26 08:21:03;;;;;;;0.00;0.00;;;;;20.00;99153.00;;;;5089911;28;20128;-85
2021/11/26 08:23:32;;;;;;;0.00;0.00;;;;;20.10;99169.00;;;;5089554;28;20051;-83
2021/11/26 08:26:02;;;;;;;0.00;0.00;;;;;20.20;99146.00;;;;5073817;28;20093;-83
2021/11/26 08:28:31;;;;;;;0.13;0.13;;;;;20.10;99150.00;;;;5090054;28;20043;-84
2021/11/26 08:31:00;;;;;;;0.00;0.00;;;;;20.20;99156.00;;;;5108987;28;20084;-81
2021/11/26 08:33:29;;;;;;;0.00;0.00;;;;;20.10;99159.00;;;;5074050;28;20460;-88
2021/11/26 08:36:00;;;;;;;0.00;0.00;;;;;20.20;99152.00;;;;5108925;28;20100;-82
2021/11/26 08:38:29;;;;;;;0.00;0.00;;;;;20.20;99155.00;;;;5090486;28;20055;-85
2021/11/26 08:40:58;;;;;;;0.00;0.00;;;;;20.20;99152.00;;;;5108112;28;20047;-82
2021/11/26 08:43:28;;;;;;;0.00;0.00;;;;;20.20;99153.00;;;;5090871;28;20040;-80
2021/11/26 08:45:57;;;;;;;0.00;0.00;;;;;20.30;99150.00;;;;5090017;28;20449;-87
2021/11/26 08:48:27;;;;;;;0.00;0.00;;;;;20.30;99152.00;;;;5107398;28;20489;-84
2021/11/26 08:50:57;;;;;;;0.00;0.00;;;;;20.40;99157.00;;;;5072839;28;20638;-82
2021/11/26 08:53:27;;;;;;;0.00;0.00;;;;;20.40;99162.00;;;;5072782;28;20043;-81
2021/11/26 08:55:56;;;;;;;0.00;0.00;;;;;20.40;99186.00;;;;5107262;28;20170;-85
2021/11/26 08:58:25;;;;;;;0.00;0.00;;;;;20.50;99201.00;;;;5107614;28;20493;-80
2021/11/26 09:00:54;;;;;;;0.00;0.00;;;;;20.50;99228.00;;;;5090037;28;20081;-83
2021/11/26 09:03:24;;;;;;;0.00;0.00;;;;;20.50;99266.00;;;;5107805;28;20101;-81
2021/11/26 09:05:54;;;;;;;4.95;0.52;;;;;20.30;99279.00;;;;5090054;28;20096;-79
2021/11/26 09:08:25;;;;;;;0.10;0.10;;;;;19.60;99248.00;;;;5106890;28;20502;-78
2021/11/26 09:10:55;;;;;;;0.43;0.43;;;;;19.20;99250.00;;;;5107513;28;20059;-80
2021/11/26 09:13:24;;;;;;;0.00;0.00;;;;;19.00;99270.00;;;;5107151;28;20113;-79
2021/11/26 09:15:54;;;;;;;0.10;0.10;;;;;18.90;99259.00;;;;5088819;28;20043;-79
2021/11/26 09:18:23;;;;;;;0.32;0.22;;;;;19.00;99241.00;;;;5089281;28;20058;-83
2021/11/26 09:20:53;;;;;;;0.00;0.00;;;;;19.10;99267.00;;;;5089262;28;20070;-82
2021/11/26 09:23:23;;;;;;;0.00;0.00;;;;;19.00;99276.00;;;;5106999;28;20063;-83
2021/11/26 09:25:53;;;;;;;0.10;0.10;;;;;19.00;99288.00;;;;5071903;28;20498;-80
2021/11/26 09:28:23;;;;;;;0.00;0.00;;;;;19.00;99277.00;;;;5096819;28;20116;-80
2021/11/26 14:13:54;;;;;;;2.83;0.90;;;;;24.30;99309.00;;;;5063632;28;20561;-74
2021/11/26 14:16:24;;;;;;;0.65;0.60;;;;;24.20;99340.00;;;;5062461;28;20057;-77
2021/11/26 14:18:59;;;;;;;3.08;0.50;;;;;23.90;99326.00;;;;5063620;28;20041;-72
2021/11/26 14:21:30;;;;;;;0.45;0.40;;;;;24.30;99264.00;;;;5063853;28;20588;-74
2021/11/26 14:24:06;;;;;;;0.15;0.15;;;;;24.70;99279.00;;;;5064103;28;20119;-75
2021/11/26 14:26:36;;;;;;;0.63;0.30;;;;;25.10;99232.00;;;;5063685;28;20468;-74
2021/11/26 14:29:10;;;;;;;0.00;0.00;;;;;26.90;99264.00;;;;5063816;28;20388;-75
2021/11/26 14:31:42;;;;;;;1.17;0.52;;;;;27.10;99219.00;;;;5061409;28;20059;-75
2021/11/26 14:34:14;;;;;;;1.10;0.65;;;;;28.20;99288.00;;;;5063608;28;20045;-76
2021/11/26 14:36:47;;;;;;;0.00;0.00;;;;;28.40;99209.00;;;;5062852;28;20044;-74
2021/11/26 14:39:27;;;;;;;0.35;0.35;;;;;27.80;99255.00;;;;5062964;28;20052;-74
2021/11/26 14:42:02;;;;;;;4.25;1.38;;;;;27.20;99259.00;;;;5063568;28;20048;-74
2021/11/26 14:44:59;;;;;;;0.10;0.10;;;;;26.10;99289.00;;;;5063899;28;20061;-75
2021/11/26 14:47:39;;;;;;;0.55;0.43;;;;;25.20;99312.00;;;;5063125;28;20067;-77
2021/11/26 14:50:23;;;;;;;0.30;0.30;;;;;24.30;99307.00;;;;5063733;28;20040;-75
2021/11/26 14:52:52;;;;;;;2.28;0.75;;;;;23.80;99315.00;;;;5063534;28;20110;-76
2021/11/26 14:55:22;;;;;;;2.47;1.10;;;;;23.60;99321.00;;;;5063779;28;20098;-77
2021/11/26 14:57:51;;;;;;;0.20;0.17;;;;;23.20;99320.00;;;;5064215;28;20067;-75
2021/11/26 15:00:21;;;;;;;0.47;0.40;;;;;23.00;99316.00;;;;5077314;28;20033;-76
2021/11/26 15:02:50;;;;;;;1.63;0.80;;;;;23.00;99331.00;;;;5077382;28;20068;-74
2021/11/26 15:05:20;;;;;;;0.45;0.22;;;;;23.10;99324.00;;;;5080013;28;20064;-75
2021/11/26 15:07:49;;;;;;;0.28;0.13;;;;;23.20;99309.00;;;;5079454;28;20549;-76
2021/11/26 15:10:18;;;;;;;0.30;0.30;;;;;23.60;99306.00;;;;5078927;28;20061;-75
2021/11/26 15:12:48;;;;;;;0.28;0.22;;;;;24.50;99275.00;;;;5063262;28;20099;-77
2021/11/26 15:15:17;;;;;;;0.10;0.10;;;;;25.10;99263.00;;;;5061826;28;20056;-76
2021/11/26 15:17:46;;;;;;;1.58;1.05;;;;;25.60;99277.00;;;;5062881;28;20036;-75
2021/11/26 15:20:16;;;;;;;0.40;0.40;;;;;25.20;99288.00;;;;5064446;28;20138;-76
2021/11/26 15:22:45;;;;;;;0.88;0.75;;;;;24.70;99286.00;;;;5064975;28;20044;-76
2021/11/26 15:25:15;;;;;;;0.10;0.10;;;;;24.30;99289.00;;;;5049566;28;20045;-77
2021/11/26 15:27:45;;;;;;;0.70;0.52;;;;;24.10;99305.00;;;;5051077;28;20052;-76
2021/11/26 15:30:15;;;;;;;1.10;0.45;;;;;23.80;99311.00;;;;5049973;28;20053;-75
2021/11/26 15:32:44;;;;;;;1.15;0.85;;;;;23.70;99313.00;;;;5047852;28;21185;-76
2021/11/26 15:35:14;;;;;;;1.63;0.70;;;;;23.60;99311.00;;;;5049279;28;20052;-78
2021/11/26 15:37:44;;;;;;;0.03;0.03;;;;;23.00;99317.00;;;;5049205;28;20474;-76
2021/11/26 15:40:15;;;;;;;0.00;0.00;;;;;22.60;99341.00;;;;5049601;28;20056;-76
2021/11/26 15:42:44;;;;;;;0.47;0.30;;;;;22.30;99338.00;;;;5049263;28;20103;-75
2021/11/26 15:45:15;;;;;;;0.10;0.10;;;;;22.20;99318.00;;;;5049578;28;20450;-76
2021/11/26 15:47:45;;;;;;;0.45;0.45;;;;;22.10;99314.00;;;;5048343;28;20763;-75
2021/11/26 15:50:19;;;;;;;0.00;0.00;;;;;22.40;99284.00;;;;5049656;28;20049;-75
2021/11/26 15:52:48;;;;;;;0.28;0.28;;;;;23.20;99271.00;;;;5049220;28;20043;-74
2021/11/26 15:55:19;;;;;;;0.10;0.10;;;;;23.70;99256.00;;;;5049525;28;20036;-75
2021/11/26 15:57:50;;;;;;;0.30;0.30;;;;;24.50;99256.00;;;;5049295;28;20045;-77
2021/11/26 16:00:20;;;;;;;0.20;0.20;;;;;24.90;99240.00;;;;5048607;28;20052;-76
2021/11/26 16:02:49;;;;;;;0.30;0.30;;;;;24.90;99246.00;;;;5049360;28;20507;-77
2021/11/26 16:05:20;;;;;;;0.27;0.20;;;;;25.10;99262.00;;;;5049158;28;20044;-75
2021/11/26 16:07:49;;;;;;;0.30;0.30;;;;;25.10;99252.00;;;;5049059;28;20283;-75
2021/11/26 16:10:18;;;;;;;0.00;0.00;;;;;25.30;99242.00;;;;5049336;28;20053;-76
2021/11/26 16:12:48;;;;;;;0.38;0.32;;;;;25.20;99258.00;;;;5048609;28;20530;-76
2021/11/26 16:15:19;;;;;;;0.50;0.50;;;;;25.10;99269.00;;;;5048866;28;20575;-76
2021/11/26 16:17:50;;;;;;;1.33;0.60;;;;;25.20;99279.00;;;;5048391;28;20079;-76
2021/11/26 16:20:40;;;;;;;2.92;1.95;;;;;25.10;99268.00;;;;5048934;28;20045;-76
2021/11/26 16:23:09;;;;;;;0.25;0.25;;;;;24.90;99272.00;;;;5048412;28;20045;-75
2021/11/26 16:25:39;;;;;;;0.82;0.55;;;;;24.80;99289.00;;;;5030978;28;20073;-74
2021/11/26 16:28:09;;;;;;;0.32;0.28;;;;;25.00;99273.00;;;;5047067;28;20423;-76
2021/11/26 16:30:43;;;;;;;0.38;0.32;;;;;25.50;99278.00;;;;5046775;28;20049;-77
2021/11/26 16:33:21;;;;;;;0.00;0.00;;;;;26.00;99257.00;;;;5048527;28;20227;-75
2021/11/26 16:35:56;;;;;;;0.40;0.40;;;;;26.80;99240.00;;;;5047568;28;20123;-75
2021/11/26 16:38:26;;;;;;;0.13;0.10;;;;;28.90;99163.00;;;;5049012;28;20496;-75
2021/11/26 16:40:55;;;;;;;0.20;0.20;;;;;28.20;99172.00;;;;5051611;28;20053;-80
2021/11/26 16:43:28;;;;;;;1.00;0.52;;;;;28.70;99175.00;;;;5055491;28;20063;-75
2021/11/26 16:45:57;;;;;;;0.28;0.25;;;;;28.90;99192.00;;;;5046455;28;20063;-75
2021/11/26 16:48:29;;;;;;;0.38;0.38;;;;;28.80;99178.00;;;;5046281;28;20064;-76
2021/11/26 16:50:59;;;;;;;0.82;0.63;;;;;28.70;99248.00;;;;5048286;28;20068;-76
2021/11/26 16:53:28;;;;;;;0.10;0.10;;;;;27.70;99264.00;;;;5046217;28;20095;-76
2021/11/26 16:55:57;;;;;;;0.40;0.40;;;;;26.80;99268.00;;;;5047633;28;20049;-77
2021/11/26 16:58:27;;;;;;;0.25;0.25;;;;;26.20;99271.00;;;;5046463;28;20559;-76
2021/11/26 17:00:59;;;;;;;0.10;0.10;;;;;26.00;99285.00;;;;5047556;28;20037;-77
2021/11/26 17:03:30;;;;;;;0.80;0.32;;;;;26.20;99263.00;;;;5047969;28;20048;-77
2021/11/26 17:06:00;;;;;;;0.10;0.10;;;;;26.10;99258.00;;;;5047523;28;20048;-75
2021/11/26 17:08:30;;;;;;;0.00;0.00;;;;;26.40;99240.00;;;;5047811;28;20560;-75
2021/11/26 17:11:00;;;;;;;;;;;;;26.50;99248.00;;;;5048422;28;20044;-76
2021/11/26 17:13:29;;;;;;;0.50;0.40;;;;;26.40;99254.00;;;;5046118;28;19952;-76
2021/11/26 17:15:59;;;;;;;2.28;1.23;;;;;26.70;99241.00;;;;5047493;28;20087;-75